createdAt,value
2023-01-18T00:00:10.444Z,85.5
2023-01-18T00:01:13.354Z,85.4
2023-01-18T00:02:17.529Z,85.5
2023-01-18T00:03:20.975Z,85.7
2023-01-18T00:04:24.953Z,85.7
2023-01-18T00:05:28.042Z,85.9
2023-01-18T00:06:31.660Z,86
2023-01-18T00:07:35.384Z,86.1
2023-01-18T00:08:38.747Z,86.3
2023-01-18T00:09:42.117Z,86.4
2023-01-18T00:10:45.550Z,86.5
2023-01-18T00:11:49.210Z,86.5
2023-01-18T00:12:52.213Z,86.5
2023-01-18T00:13:55.615Z,86.8
2023-01-18T00:14:58.327Z,86.9
2023-01-18T00:16:01.964Z,86.9
2023-01-18T00:17:04.897Z,86.9
2023-01-18T00:18:09.093Z,87
2023-01-18T00:19:12.740Z,87
2023-01-18T00:20:16.193Z,87.1
2023-01-18T00:21:19.294Z,87.3
2023-01-18T00:22:22.771Z,87.4
2023-01-18T00:23:25.486Z,87.3
2023-01-18T00:24:28.549Z,87.3
2023-01-18T00:25:32.026Z,87.4
2023-01-18T00:26:34.756Z,87.2
2023-01-18T00:27:37.819Z,87.3
2023-01-18T00:28:41.285Z,87.1
2023-01-18T00:29:44.506Z,87.2
2023-01-18T00:30:47.967Z,87.4
2023-01-18T00:31:51.125Z,87.3
2023-01-18T00:32:55.526Z,87.4
2023-01-18T00:34:01.079Z,87.4
2023-01-18T00:35:03.784Z,87.5
2023-01-18T00:36:06.930Z,87.5
2023-01-18T00:37:09.737Z,87.5
2023-01-18T00:38:12.830Z,87.4
2023-01-18T00:39:16.237Z,87.3
2023-01-18T00:40:19.102Z,87.3
2023-01-18T00:41:22.220Z,87.3
2023-01-18T00:42:26.020Z,87.2
2023-01-18T00:43:29.079Z,87.1
2023-01-18T00:44:32.131Z,87.1
2023-01-18T00:45:35.580Z,87
2023-01-18T00:46:39.418Z,86.8
2023-01-18T00:47:42.185Z,86.8
2023-01-18T00:48:45.586Z,86.7
2023-01-18T00:49:49.931Z,86.6
2023-01-18T00:50:52.936Z,86.6
2023-01-18T00:51:59.365Z,86.6
2023-01-18T00:53:01.875Z,86.6
2023-01-18T00:54:04.982Z,86.6
2023-01-18T00:55:08.007Z,86.6
2023-01-18T00:56:10.791Z,86.6
2023-01-18T00:57:13.886Z,86.8
2023-01-18T00:58:16.870Z,86.7
2023-01-18T00:59:19.378Z,86.6
2023-01-18T01:00:22.434Z,86.6
2023-01-18T01:01:25.932Z,86.5
2023-01-18T01:02:29.372Z,86.5
2023-01-18T01:03:32.599Z,86.5
2023-01-18T01:04:35.738Z,86.5
2023-01-18T01:05:39.712Z,86.5
2023-01-18T01:06:43.059Z,86.5
2023-01-18T01:07:46.387Z,86.6
2023-01-18T01:08:49.362Z,86.6
2023-01-18T01:09:52.349Z,86.6
2023-01-18T01:10:55.102Z,86.5
2023-01-18T01:11:57.893Z,86.4
2023-01-18T01:13:01.180Z,86.4
2023-01-18T01:14:04.534Z,86.5
2023-01-18T01:15:08.287Z,86.7
2023-01-18T01:16:11.704Z,86.6
2023-01-18T01:17:14.904Z,86.6
2023-01-18T01:18:17.617Z,86.5
2023-01-18T01:19:20.480Z,86.5
2023-01-18T01:20:24.255Z,86.4
2023-01-18T01:21:28.360Z,86.4
2023-01-18T01:22:31.529Z,86.3
2023-01-18T01:23:34.617Z,86.3
2023-01-18T01:24:37.905Z,86.3
2023-01-18T01:25:40.378Z,86.3
2023-01-18T01:26:43.356Z,86.3
2023-01-18T01:27:46.324Z,86.3
2023-01-18T01:28:49.414Z,86.3
2023-01-18T01:29:52.277Z,86.3
2023-01-18T01:30:55.386Z,86.1
2023-01-18T01:31:58.590Z,86
2023-01-18T01:33:01.774Z,85.9
2023-01-18T01:34:04.857Z,85.9
2023-01-18T01:35:07.954Z,86
2023-01-18T01:36:10.996Z,86
2023-01-18T01:37:15.134Z,85.9
2023-01-18T01:38:17.876Z,85.9
2023-01-18T01:39:21.238Z,86
2023-01-18T01:40:24.097Z,86
2023-01-18T01:41:27.164Z,86
2023-01-18T01:42:29.921Z,86
2023-01-18T01:43:33.295Z,86
2023-01-18T01:44:36.626Z,85.9
2023-01-18T01:45:39.853Z,85.8
2023-01-18T01:46:43.689Z,85.7
2023-01-18T01:47:46.720Z,85.7
2023-01-18T01:48:49.552Z,85.6
2023-01-18T01:49:52.275Z,85.5
2023-01-18T01:50:55.460Z,85.5
2023-01-18T01:51:59.115Z,85.5
2023-01-18T01:53:03.285Z,85.6
2023-01-18T01:54:06.698Z,85.7
2023-01-18T01:55:09.502Z,85.9
2023-01-18T01:56:12.298Z,85.9
2023-01-18T01:57:15.370Z,85.9
2023-01-18T01:58:18.486Z,85.9
2023-01-18T01:59:21.495Z,85.9
2023-01-18T02:00:24.857Z,85.8
2023-01-18T02:01:28.157Z,85.7
2023-01-18T02:02:31.587Z,85.8
2023-01-18T02:03:35.428Z,85.9
2023-01-18T02:04:38.797Z,85.9
2023-01-18T02:05:42.816Z,85.9
2023-01-18T02:06:45.692Z,85.8
2023-01-18T02:07:49.460Z,85.7
2023-01-18T02:08:53.641Z,85.6
2023-01-18T02:09:57.059Z,85.6
2023-01-18T02:10:59.753Z,85.5
2023-01-18T02:12:02.534Z,85.5
2023-01-18T02:13:04.671Z,85.4
2023-01-18T02:14:07.652Z,85.3
2023-01-18T02:15:10.911Z,85.3
2023-01-18T02:16:14.061Z,85.4
2023-01-18T02:17:16.783Z,85.3
2023-01-18T02:18:19.843Z,85.2
2023-01-18T02:19:23.048Z,85.1
2023-01-18T02:20:26.039Z,85
2023-01-18T02:21:29.156Z,85.1
2023-01-18T02:22:31.587Z,85.1
2023-01-18T02:23:34.609Z,85.2
2023-01-18T02:24:38.930Z,85.4
2023-01-18T02:25:42.130Z,85.4
2023-01-18T02:26:44.571Z,85.4
2023-01-18T02:27:47.287Z,85.5
2023-01-18T02:28:50.916Z,85.6
2023-01-18T02:29:53.691Z,85.5
2023-01-18T02:30:57.211Z,85.4
2023-01-18T02:32:00.759Z,85.5
2023-01-18T02:33:03.821Z,85.6
2023-01-18T02:34:06.955Z,85.6
2023-01-18T02:35:09.962Z,85.7
2023-01-18T02:36:13.107Z,85.7
2023-01-18T02:37:16.352Z,85.7
2023-01-18T02:38:19.800Z,85.7
2023-01-18T02:39:22.874Z,85.6
2023-01-18T02:40:26.909Z,85.6
2023-01-18T02:41:30.127Z,85.5
2023-01-18T02:42:32.828Z,85.4
2023-01-18T02:43:35.925Z,85.3
2023-01-18T02:44:39.740Z,85.3
2023-01-18T02:45:42.205Z,85.2
2023-01-18T02:46:46.215Z,85.2
2023-01-18T02:47:48.457Z,85.2
2023-01-18T02:48:52.112Z,85.3
2023-01-18T02:49:55.117Z,85.4
2023-01-18T02:50:57.551Z,85.3
2023-01-18T02:52:00.905Z,85.3
2023-01-18T02:53:03.367Z,85.3
2023-01-18T02:54:05.604Z,85.1
2023-01-18T02:55:08.796Z,85.1
2023-01-18T02:56:12.432Z,85.1
2023-01-18T02:57:15.910Z,85.1
2023-01-18T02:58:18.993Z,85.1
2023-01-18T02:59:22.638Z,85
2023-01-18T03:00:26.073Z,85
2023-01-18T03:01:29.730Z,85
2023-01-18T03:02:32.721Z,84.8
2023-01-18T03:03:35.291Z,84.7
2023-01-18T03:04:39.319Z,84.7
2023-01-18T03:05:42.126Z,84.7
2023-01-18T03:06:44.851Z,84.6
2023-01-18T03:07:47.379Z,84.5
2023-01-18T03:08:50.532Z,84.5
2023-01-18T03:09:53.250Z,84.4
2023-01-18T03:10:56.018Z,84.4
2023-01-18T03:11:59.933Z,84.4
2023-01-18T03:13:02.106Z,84.4
2023-01-18T03:14:04.824Z,84.4
2023-01-18T03:15:08.194Z,84.3
2023-01-18T03:16:11.267Z,84.2
2023-01-18T03:17:14.986Z,84.2
2023-01-18T03:18:17.715Z,84.2
2023-01-18T03:19:20.703Z,84.1
2023-01-18T03:20:26.820Z,84.1
2023-01-18T03:21:29.947Z,84.1
2023-01-18T03:22:32.940Z,84
2023-01-18T03:23:36.479Z,84
2023-01-18T03:24:40.148Z,83.9
2023-01-18T03:25:43.607Z,83.7
2023-01-18T03:26:46.748Z,83.7
2023-01-18T03:27:51.231Z,83.5
2023-01-18T03:28:54.308Z,83.4
2023-01-18T03:29:57.682Z,83.3
2023-01-18T03:31:01.014Z,83.2
2023-01-18T03:32:04.217Z,83.2
2023-01-18T03:33:07.027Z,83.1
2023-01-18T03:34:09.538Z,83.2
2023-01-18T03:35:12.580Z,83.2
2023-01-18T03:36:16.014Z,83.3
2023-01-18T03:37:18.817Z,83.1
2023-01-18T03:38:21.529Z,83.1
2023-01-18T03:39:24.685Z,83.1
2023-01-18T03:40:27.546Z,83.4
2023-01-18T03:41:30.748Z,83.7
2023-01-18T03:42:33.802Z,83.7
2023-01-18T03:43:38.115Z,83.7
2023-01-18T03:44:41.016Z,83.7
2023-01-18T03:45:44.673Z,83.8
2023-01-18T03:46:47.452Z,83.9
2023-01-18T03:47:51.102Z,84.1
2023-01-18T03:48:54.096Z,84.1
2023-01-18T03:49:56.330Z,84.2
2023-01-18T03:50:58.753Z,84.4
2023-01-18T03:52:01.762Z,84.5
2023-01-18T03:53:04.582Z,84.6
2023-01-18T03:54:07.378Z,84.7
2023-01-18T03:55:10.316Z,84.8
2023-01-18T03:56:12.757Z,84.9
2023-01-18T03:57:15.773Z,85
2023-01-18T03:58:19.229Z,84.9
2023-01-18T03:59:23.441Z,84.9
2023-01-18T04:00:26.455Z,85
2023-01-18T04:01:29.803Z,84.9
2023-01-18T04:02:33.693Z,84.7
2023-01-18T04:03:37.012Z,84.7
2023-01-18T04:04:40.104Z,84.7
2023-01-18T04:05:43.857Z,84.8
2023-01-18T04:06:46.886Z,84.7
2023-01-18T04:07:50.093Z,84.8
2023-01-18T04:08:52.998Z,84.8
2023-01-18T04:09:56.144Z,84.9
2023-01-18T04:10:59.492Z,84.9
2023-01-18T04:12:02.692Z,84.9
2023-01-18T04:13:05.748Z,84.9
2023-01-18T04:14:08.483Z,85
2023-01-18T04:15:12.461Z,85.2
2023-01-18T04:16:15.534Z,85.3
2023-01-18T04:17:19.005Z,85.5
2023-01-18T04:18:22.337Z,85.6
2023-01-18T04:19:25.419Z,85.6
2023-01-18T04:20:28.524Z,85.7
2023-01-18T04:21:31.301Z,85.7
2023-01-18T04:22:34.069Z,85.8
2023-01-18T04:23:37.153Z,86
2023-01-18T04:24:40.564Z,86
2023-01-18T04:25:43.293Z,86.1
2023-01-18T04:26:45.820Z,86.1
2023-01-18T04:27:48.579Z,86.1
2023-01-18T04:28:51.393Z,86.2
2023-01-18T04:29:55.093Z,86.5
2023-01-18T04:30:59.176Z,86.7
2023-01-18T04:32:02.558Z,86.8
2023-01-18T04:33:05.007Z,86.8
2023-01-18T04:34:08.580Z,86.9
2023-01-18T04:35:11.910Z,87.1
2023-01-18T04:36:14.624Z,87.1
2023-01-18T04:37:18.001Z,87.2
2023-01-18T04:38:21.372Z,87.2
2023-01-18T04:39:24.278Z,87.3
2023-01-18T04:40:26.822Z,87.2
2023-01-18T04:41:29.548Z,87.2
2023-01-18T04:42:32.855Z,87.1
2023-01-18T04:43:36.293Z,87.1
2023-01-18T04:44:39.722Z,87.1
2023-01-18T04:45:43.115Z,87.1
2023-01-18T04:46:47.548Z,87.1
2023-01-18T04:47:51.064Z,87.3
2023-01-18T04:48:54.230Z,87.4
2023-01-18T04:49:56.951Z,87.4
2023-01-18T04:51:01.030Z,87.4
2023-01-18T04:52:04.741Z,87.6
2023-01-18T04:53:08.083Z,87.7
2023-01-18T04:54:11.523Z,87.9
2023-01-18T04:55:14.226Z,87.9
2023-01-18T04:56:16.728Z,88
2023-01-18T04:57:19.192Z,87.9
2023-01-18T04:58:21.945Z,87.9
2023-01-18T04:59:25.090Z,87.9
2023-01-18T05:00:29.083Z,87.8
2023-01-18T05:01:32.526Z,87.7
2023-01-18T05:02:37.142Z,87.5
2023-01-18T05:03:40.960Z,87.6
2023-01-18T05:04:44.401Z,87.5
2023-01-18T05:05:47.531Z,87.4
2023-01-18T05:06:50.383Z,87.4
2023-01-18T05:07:54.096Z,87.2
2023-01-18T05:08:56.821Z,87.1
2023-01-18T05:10:00.454Z,86.9
2023-01-18T05:11:03.523Z,86.7
2023-01-18T05:12:06.525Z,86.6
2023-01-18T05:13:09.797Z,86.6
2023-01-18T05:14:12.879Z,86.5
2023-01-18T05:15:16.183Z,86.4
2023-01-18T05:16:20.362Z,86.3
2023-01-18T05:17:23.977Z,86.2
2023-01-18T05:18:27.891Z,86.1
2023-01-18T05:19:30.717Z,86.1
2023-01-18T05:20:34.186Z,85.9
2023-01-18T05:21:37.841Z,85.9
2023-01-18T05:22:40.831Z,85.8
2023-01-18T05:23:44.194Z,85.8
2023-01-18T05:24:47.942Z,85.8
2023-01-18T05:25:50.989Z,85.7
2023-01-18T05:26:54.709Z,85.6
2023-01-18T05:27:57.431Z,85.6
2023-01-18T05:29:00.492Z,85.5
2023-01-18T05:30:07.200Z,85.3
2023-01-18T05:31:10.805Z,85.2
2023-01-18T05:32:14.091Z,85.2
2023-01-18T05:33:17.732Z,85.4
2023-01-18T05:34:21.628Z,85.5
2023-01-18T05:35:25.348Z,85.6
2023-01-18T05:36:28.988Z,85.8
2023-01-18T05:37:31.804Z,85
2023-01-18T05:38:34.605Z,84.9
2023-01-18T05:39:37.042Z,84.6
2023-01-18T05:40:40.777Z,84.5
2023-01-18T05:41:43.282Z,84.5
2023-01-18T05:42:46.555Z,84.6
2023-01-18T05:43:49.661Z,84.6
2023-01-18T05:44:52.452Z,84.7
2023-01-18T05:45:55.618Z,84.8
2023-01-18T05:46:58.739Z,84.8
2023-01-18T05:48:01.293Z,84.8
2023-01-18T05:49:04.660Z,84.7
2023-01-18T05:50:08.552Z,84.7
2023-01-18T05:51:11.606Z,84.8
2023-01-18T05:52:14.339Z,84.9
2023-01-18T05:53:17.436Z,85.1
2023-01-18T05:54:20.553Z,85.1
2023-01-18T05:55:23.437Z,85.4
2023-01-18T05:56:26.182Z,85.5
2023-01-18T05:57:29.167Z,85.6
2023-01-18T05:58:31.397Z,85.7
2023-01-18T05:59:33.892Z,85.7
2023-01-18T06:00:36.689Z,85.7
2023-01-18T06:01:40.171Z,85.6
2023-01-18T06:02:43.428Z,85.4
2023-01-18T06:03:46.442Z,85.4
2023-01-18T06:04:49.455Z,85.5
2023-01-18T06:05:53.651Z,85.6
2023-01-18T06:06:56.932Z,85.9
2023-01-18T06:07:59.943Z,86.1
2023-01-18T06:09:03.325Z,86.3
2023-01-18T06:10:06.499Z,86.3
2023-01-18T06:11:09.025Z,86.4
2023-01-18T06:12:12.087Z,86.6
2023-01-18T06:13:14.892Z,86.6
2023-01-18T06:14:17.966Z,86.5
2023-01-18T06:15:21.208Z,86.4
2023-01-18T06:16:25.269Z,86.4
2023-01-18T06:17:28.146Z,86.5
2023-01-18T06:18:31.018Z,86.6
2023-01-18T06:19:34.007Z,86.5
2023-01-18T06:20:37.367Z,86.5
2023-01-18T06:21:41.505Z,86.5
2023-01-18T06:22:44.214Z,86.7
2023-01-18T06:23:47.886Z,86.8
2023-01-18T06:24:51.282Z,86.8
2023-01-18T06:25:53.787Z,86.8
2023-01-18T06:26:56.612Z,86.8
2023-01-18T06:27:59.473Z,86.9
2023-01-18T06:29:02.820Z,87
2023-01-18T06:30:05.344Z,87
2023-01-18T06:31:08.721Z,87
2023-01-18T06:32:11.156Z,87.1
2023-01-18T06:33:14.216Z,87.1
2023-01-18T06:34:17.329Z,87.3
2023-01-18T06:35:20.174Z,87.5
2023-01-18T06:36:23.278Z,87.7
2023-01-18T06:37:27.578Z,87.8
2023-01-18T06:38:30.883Z,87.8
2023-01-18T06:39:33.039Z,87.7
2023-01-18T06:40:35.636Z,87.8
2023-01-18T06:41:38.354Z,87.8
2023-01-18T06:42:41.166Z,87.8
2023-01-18T06:43:44.909Z,87.9
2023-01-18T06:44:47.538Z,87.9
2023-01-18T06:45:53.568Z,87.9
2023-01-18T06:46:56.860Z,88.1
2023-01-18T06:48:00.525Z,88.2
2023-01-18T06:49:04.207Z,88.5
2023-01-18T06:50:08.007Z,88.5
2023-01-18T06:51:11.010Z,88.4
2023-01-18T06:52:14.114Z,88.4
2023-01-18T06:53:18.258Z,88.4
2023-01-18T06:54:21.643Z,88.3
2023-01-18T06:55:25.131Z,88.4
2023-01-18T06:56:28.872Z,88.5
2023-01-18T06:57:31.572Z,88.6
2023-01-18T06:58:34.378Z,88.7
2023-01-18T06:59:37.664Z,88.9
2023-01-18T07:00:40.367Z,88.9
2023-01-18T07:01:44.456Z,88.9
2023-01-18T07:02:47.513Z,89
2023-01-18T07:03:50.845Z,89.1
2023-01-18T07:04:53.409Z,89
2023-01-18T07:05:57.057Z,88.9
2023-01-18T07:07:00.184Z,89
2023-01-18T07:08:03.537Z,89
2023-01-18T07:09:07.675Z,89
2023-01-18T07:10:11.175Z,89
2023-01-18T07:11:15.656Z,88.9
2023-01-18T07:12:18.985Z,88.9
2023-01-18T07:13:22.420Z,88.9
2023-01-18T07:14:25.449Z,88.9
2023-01-18T07:15:28.236Z,88.8
2023-01-18T07:16:31.799Z,88.7
2023-01-18T07:17:35.176Z,88.6
2023-01-18T07:18:38.891Z,88.4
2023-01-18T07:19:42.564Z,88.4
2023-01-18T07:20:45.584Z,88.4
2023-01-18T07:21:48.368Z,88.4
2023-01-18T07:22:51.074Z,88.3
2023-01-18T07:23:54.104Z,88.3
2023-01-18T07:24:58.018Z,88.4
2023-01-18T07:26:00.811Z,88.5
2023-01-18T07:27:04.113Z,88.6
2023-01-18T07:28:07.276Z,88.6
2023-01-18T07:29:10.279Z,88.6
2023-01-18T07:30:13.337Z,88.6
2023-01-18T07:31:16.430Z,88.6
2023-01-18T07:32:20.223Z,88.6
2023-01-18T07:33:23.626Z,88.7
2023-01-18T07:34:26.339Z,88.6
2023-01-18T07:35:29.150Z,88.5
2023-01-18T07:36:32.487Z,88.4
2023-01-18T07:37:35.318Z,88.4
2023-01-18T07:38:38.948Z,88.3
2023-01-18T07:39:42.134Z,88.2
2023-01-18T07:40:46.302Z,88.1
2023-01-18T07:41:49.294Z,88
2023-01-18T07:42:52.288Z,87.9
2023-01-18T07:43:55.568Z,88
2023-01-18T07:44:59.031Z,88
2023-01-18T07:46:02.341Z,88
2023-01-18T07:47:06.051Z,88
2023-01-18T07:48:09.471Z,88
2023-01-18T07:49:12.767Z,87.9
2023-01-18T07:50:15.925Z,87.8
2023-01-18T07:51:19.298Z,87.8
2023-01-18T07:52:22.467Z,87.8
2023-01-18T07:53:26.215Z,87.7
2023-01-18T07:54:29.861Z,87.7
2023-01-18T07:55:33.244Z,87.6
2023-01-18T07:56:37.225Z,87.5
2023-01-18T07:57:39.967Z,87.4
2023-01-18T07:58:42.982Z,87.3
2023-01-18T07:59:46.732Z,87.4
2023-01-18T08:00:49.917Z,87.3
2023-01-18T08:01:53.696Z,87.3
2023-01-18T08:03:01.407Z,87.4
2023-01-18T08:04:06.418Z,87.6
2023-01-18T08:05:09.520Z,87.6
2023-01-18T08:06:12.805Z,87.7
2023-01-18T08:07:16.078Z,87.8
2023-01-18T08:08:18.880Z,87.8
2023-01-18T08:09:21.877Z,87.9
2023-01-18T08:10:25.336Z,88
2023-01-18T08:11:28.538Z,88.1
2023-01-18T08:12:32.591Z,88
2023-01-18T08:13:36.659Z,88
2023-01-18T08:14:39.650Z,88.1
2023-01-18T08:15:43.170Z,88.2
2023-01-18T08:16:46.972Z,88.2
2023-01-18T08:17:50.321Z,88
2023-01-18T08:18:53.371Z,87.9
2023-01-18T08:19:56.741Z,87.8
2023-01-18T08:21:00.124Z,87.8
2023-01-18T08:22:03.357Z,87.8
2023-01-18T08:23:06.486Z,87.7
2023-01-18T08:24:10.141Z,87.7
2023-01-18T08:25:13.298Z,87.6
2023-01-18T08:26:17.048Z,87.5
2023-01-18T08:27:20.488Z,87.5
2023-01-18T08:28:24.609Z,87.4
2023-01-18T08:29:27.614Z,87.4
2023-01-18T08:30:31.261Z,87.3
2023-01-18T08:31:35.466Z,87.2
2023-01-18T08:32:38.524Z,87.1
2023-01-18T08:33:41.810Z,87
2023-01-18T08:34:44.821Z,86.9
2023-01-18T08:35:48.124Z,86.7
2023-01-18T08:36:50.843Z,86.7
2023-01-18T08:37:54.300Z,86.7
2023-01-18T08:38:58.325Z,86.7
2023-01-18T08:40:01.654Z,86.7
2023-01-18T08:41:04.979Z,86.6
2023-01-18T08:42:08.263Z,86.4
2023-01-18T08:43:12.023Z,86.3
2023-01-18T08:44:16.320Z,86.2
2023-01-18T08:45:19.238Z,86.1
2023-01-18T08:46:22.933Z,86
2023-01-18T08:47:26.646Z,86
2023-01-18T08:48:30.470Z,85.9
2023-01-18T08:49:33.945Z,85.8
2023-01-18T08:50:37.673Z,86.5
2023-01-18T08:51:41.067Z,86.2
2023-01-18T08:52:44.143Z,86.3
2023-01-18T08:53:46.929Z,86.1
2023-01-18T08:54:50.374Z,85.8
2023-01-18T08:55:53.551Z,85.6
2023-01-18T08:56:56.406Z,85.3
2023-01-18T08:58:00.066Z,85.1
2023-01-18T08:59:03.521Z,85.1
2023-01-18T09:00:07.822Z,84.8
2023-01-18T09:01:11.339Z,84.7
2023-01-18T09:02:15.183Z,84.7
2023-01-18T09:03:18.381Z,84.7
2023-01-18T09:04:21.659Z,84.8
2023-01-18T09:05:25.061Z,84.8
2023-01-18T09:06:28.678Z,84.6
2023-01-18T09:07:31.571Z,84.5
2023-01-18T09:08:35.558Z,84.4
2023-01-18T09:09:39.592Z,84.5
2023-01-18T09:10:42.361Z,84.5
2023-01-18T09:11:45.997Z,84.4
2023-01-18T09:12:49.192Z,84.3
2023-01-18T09:14:03.023Z,84.2
2023-01-18T09:15:06.044Z,84.2
2023-01-18T09:16:10.558Z,84.1
2023-01-18T09:17:13.494Z,84.1
2023-01-18T09:18:16.017Z,84.2
2023-01-18T09:19:19.672Z,84
2023-01-18T09:20:22.509Z,83.9
2023-01-18T09:21:25.601Z,83.7
2023-01-18T09:22:28.733Z,83.6
2023-01-18T09:23:31.448Z,83.5
2023-01-18T09:24:34.547Z,83.4
2023-01-18T09:25:37.729Z,83.5
2023-01-18T09:26:40.889Z,83.5
2023-01-18T09:27:44.447Z,83.4
2023-01-18T09:28:47.327Z,83.4
2023-01-18T09:29:51.032Z,83.5
2023-01-18T09:30:54.413Z,83.4
2023-01-18T09:31:58.335Z,83.3
2023-01-18T09:33:03.007Z,83.3
2023-01-18T09:34:20.669Z,83.2
2023-01-18T09:35:24.636Z,83
2023-01-18T09:36:28.289Z,82.8
2023-01-18T09:37:31.741Z,82.8
2023-01-18T09:38:34.741Z,82.9
2023-01-18T09:39:53.409Z,83
2023-01-18T09:40:56.969Z,82.6
2023-01-18T09:41:59.711Z,82.6
2023-01-18T09:43:02.683Z,82.7
2023-01-18T09:44:05.800Z,82.2
2023-01-18T09:45:09.467Z,82.1
2023-01-18T09:46:13.253Z,82.4
2023-01-18T09:47:17.582Z,82
2023-01-18T09:48:21.102Z,81.9
2023-01-18T09:49:25.121Z,81.8
2023-01-18T09:50:28.591Z,81.4
2023-01-18T09:51:31.781Z,81.4
2023-01-18T09:52:34.256Z,81.3
2023-01-18T09:53:37.673Z,81.4
2023-01-18T09:54:40.660Z,81.4
2023-01-18T09:55:44.099Z,81
2023-01-18T09:56:47.551Z,81.1
2023-01-18T09:57:50.341Z,80.7
2023-01-18T09:58:53.139Z,80.6
2023-01-18T09:59:55.857Z,80.8
2023-01-18T10:00:59.546Z,80.9
2023-01-18T10:02:03.844Z,81
2023-01-18T10:03:08.184Z,81.1
2023-01-18T10:04:10.909Z,80.8
2023-01-18T10:05:14.369Z,80.8
2023-01-18T10:06:18.093Z,80.8
2023-01-18T10:07:22.118Z,80.7
2023-01-18T10:08:25.120Z,80.4
2023-01-18T10:09:28.508Z,80.1
2023-01-18T10:10:31.872Z,80
2023-01-18T10:11:35.904Z,79.8
2023-01-18T10:12:40.082Z,79.6
2023-01-18T10:13:43.012Z,79.7
2023-01-18T10:14:46.113Z,79.7
2023-01-18T10:15:49.484Z,79.3
2023-01-18T10:16:55.662Z,79.3
2023-01-18T10:17:59.396Z,78.9
2023-01-18T10:19:03.487Z,78.7
2023-01-18T10:20:07.200Z,78.2
2023-01-18T10:21:10.832Z,78.1
2023-01-18T10:22:14.697Z,78.3
2023-01-18T10:23:17.553Z,78.3
2023-01-18T10:24:20.943Z,77.8
2023-01-18T10:25:24.205Z,77.8
2023-01-18T10:26:27.324Z,77.6
2023-01-18T10:27:31.016Z,78.1
2023-01-18T10:28:34.161Z,77.7
2023-01-18T10:29:37.907Z,77.5
2023-01-18T10:30:41.494Z,77.1
2023-01-18T10:31:45.525Z,77.2
2023-01-18T10:32:49.755Z,77.3
2023-01-18T10:33:52.773Z,77.3
2023-01-18T10:34:57.035Z,77.3
2023-01-18T10:36:01.065Z,77.3
2023-01-18T10:37:04.747Z,77.4
2023-01-18T10:38:08.165Z,77.3
2023-01-18T10:39:11.785Z,77.1
2023-01-18T10:40:15.167Z,77
2023-01-18T10:41:18.246Z,76.8
2023-01-18T10:42:21.865Z,75.2
2023-01-18T10:43:25.289Z,75.1
2023-01-18T10:44:28.712Z,75.4
2023-01-18T10:45:32.080Z,75.6
2023-01-18T10:46:34.677Z,75.6
2023-01-18T10:47:38.436Z,75.2
2023-01-18T10:48:41.812Z,74.6
2023-01-18T10:49:45.529Z,74.5
2023-01-18T10:50:53.300Z,74.6
2023-01-18T10:51:57.186Z,74.1
2023-01-18T10:53:02.366Z,74.5
2023-01-18T10:54:05.091Z,74.8
2023-01-18T10:55:07.596Z,74.3
2023-01-18T10:56:10.429Z,74
2023-01-18T10:57:13.787Z,73.3
2023-01-18T10:58:16.896Z,73.1
2023-01-18T10:59:20.229Z,73.4
2023-01-18T11:00:23.571Z,73.5
2023-01-18T11:01:27.372Z,73
2023-01-18T11:02:32.156Z,72.8
2023-01-18T11:03:36.140Z,73.1
2023-01-18T11:04:39.311Z,73.1
2023-01-18T11:05:41.753Z,73.6
2023-01-18T11:06:45.926Z,73.9
2023-01-18T11:07:49.096Z,74
2023-01-18T11:08:52.488Z,74
2023-01-18T11:09:55.941Z,72.8
2023-01-18T11:10:59.279Z,72.5
2023-01-18T11:12:03.089Z,72.4
2023-01-18T11:13:07.756Z,72.3
2023-01-18T11:14:12.446Z,72.1
2023-01-18T11:15:16.232Z,72.1
2023-01-18T11:16:19.477Z,72
2023-01-18T11:17:22.655Z,72.1
2023-01-18T11:18:25.920Z,72.1
2023-01-18T11:19:29.318Z,71.4
2023-01-18T11:20:32.356Z,71.8
2023-01-18T11:21:35.675Z,71.7
2023-01-18T11:22:39.902Z,71.9
2023-01-18T11:23:45.213Z,71.6
2023-01-18T11:24:48.736Z,71.6
2023-01-18T11:25:51.802Z,71.4
2023-01-18T11:26:54.864Z,71.8
2023-01-18T11:28:00.682Z,71.3
2023-01-18T11:29:05.003Z,71
2023-01-18T11:30:07.889Z,71.1
2023-01-18T11:31:11.594Z,70.7
2023-01-18T11:32:14.395Z,70.7
2023-01-18T11:33:17.849Z,71.1
2023-01-18T11:34:21.206Z,71.1
2023-01-18T11:35:24.287Z,71.3
2023-01-18T11:36:27.552Z,71.1
2023-01-18T11:37:30.709Z,71.2
2023-01-18T11:38:34.990Z,70.6
2023-01-18T11:39:37.454Z,70.6
2023-01-18T11:40:40.838Z,70.7
2023-01-18T11:41:43.624Z,70.7
2023-01-18T11:42:46.342Z,70.5
2023-01-18T11:43:50.003Z,70.9
2023-01-18T11:44:52.778Z,71.5
2023-01-18T11:45:56.461Z,71.7
2023-01-18T11:46:59.692Z,72.1
2023-01-18T11:48:04.253Z,72.1
2023-01-18T11:49:07.685Z,72
2023-01-18T11:50:23.774Z,71.8
2023-01-18T11:51:27.492Z,70.8
2023-01-18T11:52:30.773Z,69.9
2023-01-18T11:53:33.248Z,70.1
2023-01-18T11:54:37.526Z,70.3
2023-01-18T11:55:40.586Z,70.8
2023-01-18T11:56:43.954Z,70.9
2023-01-18T11:57:47.047Z,71
2023-01-18T11:58:50.779Z,70.9
2023-01-18T11:59:54.219Z,70.9
2023-01-18T12:00:57.727Z,70.8
2023-01-18T12:02:01.545Z,70.6
2023-01-18T12:03:05.737Z,69.9
2023-01-18T12:04:08.975Z,69.6
2023-01-18T12:05:11.699Z,69.2
2023-01-18T12:06:14.740Z,69.5
2023-01-18T12:07:18.397Z,70.2
2023-01-18T12:08:21.192Z,69.9
2023-01-18T12:09:24.595Z,70
2023-01-18T12:10:28.782Z,70.4
2023-01-18T12:11:32.474Z,71
2023-01-18T12:12:36.202Z,71.2
2023-01-18T12:13:39.617Z,71.1
2023-01-18T12:14:42.498Z,71.1
2023-01-18T12:15:45.886Z,71.1
2023-01-18T12:16:48.991Z,69.9
2023-01-18T12:18:15.029Z,69.6
2023-01-18T12:19:20.607Z,69.5
2023-01-18T12:20:23.967Z,69.9
2023-01-18T12:21:27.042Z,70.1
2023-01-18T12:22:30.211Z,70.4
2023-01-18T12:23:33.502Z,70.6
2023-01-18T12:24:36.891Z,69.8
2023-01-18T12:25:41.231Z,69.8
2023-01-18T12:26:44.612Z,69.7
2023-01-18T12:27:47.980Z,69.7
2023-01-18T12:28:51.651Z,69.4
2023-01-18T12:29:54.352Z,69
2023-01-18T12:30:57.779Z,69.3
2023-01-18T12:32:01.121Z,69.6
2023-01-18T12:33:03.864Z,70.3
2023-01-18T12:34:07.343Z,70.8
2023-01-18T12:35:26.247Z,70.8
2023-01-18T12:36:29.324Z,70.6
2023-01-18T12:37:32.682Z,70.4
2023-01-18T12:38:35.781Z,70.8
2023-01-18T12:39:39.576Z,70.6
2023-01-18T12:40:43.304Z,71
2023-01-18T12:41:47.112Z,71.2
2023-01-18T12:42:50.288Z,71.2
2023-01-18T12:43:52.989Z,70
2023-01-18T12:44:55.750Z,69.7
2023-01-18T12:45:58.642Z,70.1
2023-01-18T12:47:02.798Z,70.1
2023-01-18T12:48:06.223Z,70.2
2023-01-18T12:49:08.937Z,70.7
2023-01-18T12:50:11.997Z,70.9
2023-01-18T12:51:15.189Z,70.9
2023-01-18T12:52:20.478Z,70.5
2023-01-18T12:53:24.166Z,70.3
2023-01-18T12:54:27.296Z,69.8
2023-01-18T12:55:30.387Z,69.7
2023-01-18T12:56:34.625Z,69.2
2023-01-18T12:57:38.371Z,69.3
2023-01-18T12:58:41.827Z,69.8
2023-01-18T12:59:44.674Z,70
2023-01-18T13:00:47.722Z,70
2023-01-18T13:01:51.088Z,70.2
2023-01-18T13:02:54.726Z,70.3
2023-01-18T13:03:58.110Z,70.8
2023-01-18T13:05:01.107Z,71.1
2023-01-18T13:06:04.245Z,71.2
2023-01-18T13:07:08.047Z,71.1
2023-01-18T13:08:11.350Z,70.7
2023-01-18T13:09:14.766Z,70.5
2023-01-18T13:10:18.431Z,70.3
2023-01-18T13:11:21.492Z,70.5
2023-01-18T13:12:25.471Z,70.3
2023-01-18T13:13:28.770Z,70.1
2023-01-18T13:14:32.150Z,69.9
2023-01-18T13:15:35.512Z,70.2
2023-01-18T13:16:39.049Z,69.8
2023-01-18T13:17:42.140Z,69.7
2023-01-18T13:18:45.690Z,69.6
2023-01-18T13:19:48.758Z,69.8
2023-01-18T13:20:51.462Z,70
2023-01-18T13:21:54.933Z,70.5
2023-01-18T13:22:58.316Z,70.9
2023-01-18T13:24:01.374Z,70
2023-01-18T13:25:04.753Z,70.2
2023-01-18T13:26:07.853Z,70.6
2023-01-18T13:27:11.325Z,70.3
2023-01-18T13:28:15.225Z,70.4
2023-01-18T13:29:18.674Z,70.4
2023-01-18T13:30:22.059Z,70.5
2023-01-18T13:31:25.667Z,70.4
2023-01-18T13:32:29.895Z,70
2023-01-18T13:33:33.384Z,70.1
2023-01-18T13:34:49.904Z,70.5
2023-01-18T13:35:53.003Z,70.3
2023-01-18T13:37:15.924Z,69.5
2023-01-18T13:38:22.259Z,69.7
2023-01-18T13:39:45.061Z,70.1
2023-01-18T13:40:48.265Z,70.4
2023-01-18T13:41:51.898Z,69.8
2023-01-18T13:42:55.042Z,70
2023-01-18T13:43:58.786Z,70.6
2023-01-18T13:45:01.993Z,71.1
2023-01-18T13:46:04.925Z,71.3
2023-01-18T13:47:08.562Z,71.4
2023-01-18T13:48:11.975Z,71.5
2023-01-18T13:49:39.397Z,71.6
2023-01-18T13:50:43.424Z,71.6
2023-01-18T13:51:46.631Z,71.9
2023-01-18T13:52:49.339Z,72.2
2023-01-18T13:53:52.802Z,72.3
2023-01-18T13:54:55.550Z,72.2
2023-01-18T13:55:58.902Z,72.2
2023-01-18T13:57:02.532Z,72.1
2023-01-18T13:58:06.218Z,72.2
2023-01-18T13:59:10.455Z,72.6
2023-01-18T14:00:15.818Z,72.9
2023-01-18T14:01:20.253Z,73.3
2023-01-18T14:02:24.238Z,73.3
2023-01-18T14:03:28.091Z,72.9
2023-01-18T14:04:31.320Z,72.8
2023-01-18T14:05:34.340Z,72
2023-01-18T14:06:38.080Z,72
2023-01-18T14:07:41.145Z,71.8
2023-01-18T14:08:44.149Z,71.8
2023-01-18T14:09:47.619Z,72.1
2023-01-18T14:10:51.359Z,72.4